»·PEaware :: N122KS KPSP-KIFP

N122KS :: KPSP-KIFP

FLIGHT INFORMATION

Flight Status: Arrived
Operator: Privately registered:
United States
More flights under this callsign
Pilot: John F. (12896)
Aircraft: CESSNA 172 SKYHAWK
(C172)
More flights by this aircraft type
Origin: KPSP Palm Springs Intl
United States
Destination: KIFP Laughlin/Bullhead Intl
United States
More flights between these airports :: More routes between these airports
Route: +
File this flight plan on PilotEdge
Remarks:
Altitude:
(Current/Filed)
7,500ft
Speed:
(Current/Filed)
0kts
Departed: 22-Feb-17 06:02 PM
Arrived: 22-Feb-17 07:16 PM
Distance/Time
Traveled:
125nm/1:14
Distance/Time
To Go:
Arrived

Flight Plot

Page will automatically refresh every two minutes.

Flight plan parsing failed; only flown route is shown


Map Options




Map Legend


Flown Route
Filed Route
Departure Airport
Arrival Airport
Navaid (VOR, NDB)
Fix

Horizontal Profiles

Position Reports

Time Latitude Longitude Heading Altitude Ground
Speed
22-Feb-17 17:57 33.823776 -116.497172 54 480ft 0kts
22-Feb-17 17:58 33.823779 -116.497168 54 480ft 0kts
22-Feb-17 17:59 33.823781 -116.497164 54 480ft 0kts
22-Feb-17 18:00 33.823850 -116.497269 261 480ft 3kts
22-Feb-17 18:01 33.824671 -116.499518 231 480ft 0kts
22-Feb-17 18:02 33.824670 -116.499519 231 480ft 0kts
22-Feb-17 18:03 33.826829 -116.502240 325 483ft 65kts
22-Feb-17 18:04 33.843553 -116.512958 3 1501ft 69kts
22-Feb-17 18:05 33.850855 -116.492301 83 2501ft 72kts
22-Feb-17 18:06 33.853416 -116.467947 82 3473ft 73kts
22-Feb-17 18:07 33.858342 -116.443698 74 4382ft 75kts
22-Feb-17 18:08 33.863845 -116.418642 68 5227ft 80kts
22-Feb-17 18:09 33.869971 -116.391114 67 6021ft 87kts
22-Feb-17 18:10 33.877092 -116.360855 69 6757ft 98kts
22-Feb-17 18:11 33.884551 -116.328853 73 7470ft 107kts
22-Feb-17 18:12 33.891439 -116.289263 78 7730ft 132kts
22-Feb-17 18:13 33.901042 -116.244370 72 7564ft 141kts
22-Feb-17 18:14 33.910583 -116.201274 74 7683ft 135kts
22-Feb-17 18:15 33.919369 -116.156647 75 7624ft 136kts
22-Feb-17 18:16 33.927688 -116.112519 74 7636ft 135kts
22-Feb-17 18:17 33.937304 -116.069919 66 7739ft 130kts
22-Feb-17 18:18 33.950543 -116.028646 66 7691ft 140kts
22-Feb-17 18:19 33.964170 -115.984746 61 7573ft 137kts
22-Feb-17 18:20 33.980481 -115.943896 59 7554ft 135kts
22-Feb-17 18:21 34.000133 -115.904799 56 7445ft 136kts
22-Feb-17 18:22 34.016773 -115.864821 62 7483ft 135kts
22-Feb-17 18:23 34.032974 -115.824361 58 7508ft 133kts
22-Feb-17 18:24 34.049620 -115.783746 56 7474ft 133kts
22-Feb-17 18:25 34.068978 -115.745036 54 7429ft 135kts
22-Feb-17 18:26 34.088430 -115.707599 52 7522ft 131kts
22-Feb-17 18:27 34.107443 -115.669701 54 7584ft 132kts
22-Feb-17 18:28 34.127578 -115.632863 47 7622ft 132kts
22-Feb-17 18:29 34.148777 -115.596141 51 7605ft 134kts
22-Feb-17 18:30 34.168762 -115.557886 52 7604ft 133kts
22-Feb-17 18:31 34.187561 -115.519969 54 7697ft 131kts
22-Feb-17 18:32 34.206837 -115.482368 52 7760ft 131kts
22-Feb-17 18:33 34.226706 -115.445232 52 7795ft 132kts
22-Feb-17 18:34 34.246657 -115.407993 51 7819ft 132kts
22-Feb-17 18:35 34.267471 -115.371077 48 7758ft 137kts
22-Feb-17 18:36 34.289696 -115.332633 49 7589ft 137kts
22-Feb-17 18:37 34.309384 -115.293992 56 7596ft 134kts
22-Feb-17 18:38 34.324052 -115.252310 63 7618ft 134kts
22-Feb-17 18:39 34.341596 -115.212990 54 7661ft 132kts
22-Feb-17 18:40 34.359557 -115.173157 58 7629ft 135kts
22-Feb-17 18:41 34.375918 -115.133631 60 7771ft 129kts
22-Feb-17 18:42 34.392397 -115.093417 58 7784ft 137kts
22-Feb-17 18:43 34.410020 -115.051540 57 7688ft 140kts
22-Feb-17 18:44 34.427323 -115.008369 64 7555ft 142kts
22-Feb-17 18:45 34.440925 -114.964298 61 7555ft 139kts
22-Feb-17 18:46 34.457498 -114.922627 61 7588ft 137kts
22-Feb-17 18:47 34.480557 -114.888442 37 7669ft 131kts
22-Feb-17 18:48 34.505687 -114.855111 45 7622ft 137kts
22-Feb-17 18:49 34.527710 -114.817873 53 7684ft 134kts
22-Feb-17 18:50 34.548345 -114.779199 48 7636ft 137kts
22-Feb-17 18:51 34.569463 -114.740316 53 7579ft 139kts
22-Feb-17 18:52 34.591367 -114.701791 45 7488ft 138kts
22-Feb-17 18:53 34.614961 -114.665000 42 7418ft 138kts
22-Feb-17 18:54 34.639351 -114.629055 48 7353ft 138kts
22-Feb-17 18:55 34.662358 -114.591629 49 7287ft 139kts
22-Feb-17 18:56 34.687002 -114.555885 37 7187ft 138kts
22-Feb-17 18:57 34.714650 -114.523908 37 7023ft 138kts
22-Feb-17 18:58 34.748284 -114.516478 345 6021ft 123kts
22-Feb-17 18:59 34.780805 -114.518054 352 5217ft 108kts
22-Feb-17 19:00 34.810335 -114.516694 4 4742ft 102kts
22-Feb-17 19:01 34.840028 -114.513347 5 4191ft 110kts
22-Feb-17 19:02 34.870473 -114.510264 4 3749ft 109kts
22-Feb-17 19:03 34.901231 -114.513391 350 3201ft 113kts
22-Feb-17 19:04 34.932259 -114.518305 355 2692ft 110kts
22-Feb-17 19:05 34.962517 -114.522649 347 2295ft 104kts
22-Feb-17 19:06 34.988351 -114.535998 334 2172ft 99kts
22-Feb-17 19:07 35.011991 -114.548040 342 2180ft 92kts
22-Feb-17 19:08 35.035684 -114.554474 353 2035ft 84kts
22-Feb-17 19:09 35.059452 -114.560662 349 1863ft 88kts
22-Feb-17 19:10 35.084289 -114.565496 349 1842ft 91kts
22-Feb-17 19:11 35.109175 -114.571385 349 1831ft 91kts
22-Feb-17 19:12 35.133977 -114.578656 347 1778ft 88kts
22-Feb-17 19:13 35.155603 -114.584361 348 1570ft 74kts
22-Feb-17 19:14 35.175837 -114.587196 10 1252ft 67kts
22-Feb-17 19:15 35.182800 -114.569005 106 986ft 57kts
22-Feb-17 19:16 35.168063 -114.560349 175 749ft 67kts
22-Feb-17 19:17 35.158973 -114.559665 176 698ft 11kts
22-Feb-17 19:18 35.155313 -114.559280 175 698ft 8kts
22-Feb-17 19:19 35.153744 -114.558646 84 698ft 0kts
22-Feb-17 19:20 35.153863 -114.558045 67 698ft 7kts

Navigation Log

Ident Type
Flight plan parsing failed, navigation log unavailable